createdAt,value
2023-07-27T00:00:33.900Z,86.04
2023-07-27T00:03:00.757Z,85.95
2023-07-27T00:05:27.602Z,86.26
2023-07-27T00:07:54.629Z,85.94
2023-07-27T00:10:21.450Z,86.41
2023-07-27T00:12:48.222Z,86.17
2023-07-27T00:15:15.016Z,86.20
2023-07-27T00:17:41.866Z,86.39
2023-07-27T00:20:09.006Z,86.64
2023-07-27T00:22:35.786Z,87.21
2023-07-27T00:25:02.564Z,86.85
2023-07-27T00:27:29.372Z,87.15
2023-07-27T00:29:56.185Z,86.48
2023-07-27T00:32:23.338Z,87.12
2023-07-27T00:34:53.348Z,87.02
2023-07-27T00:37:20.141Z,87.19
2023-07-27T00:39:47.012Z,87.05
2023-07-27T00:42:13.858Z,87.21
2023-07-27T00:44:40.621Z,87.58
2023-07-27T00:47:07.615Z,87.60
2023-07-27T00:49:35.218Z,87.03
2023-07-27T00:52:07.068Z,87.22
2023-07-27T00:54:34.944Z,87.20
2023-07-27T00:57:02.444Z,87.48
2023-07-27T00:59:29.914Z,87.38
2023-07-27T01:01:57.318Z,87.58
2023-07-27T01:04:24.231Z,87.29
2023-07-27T01:06:51.413Z,87.40
2023-07-27T01:09:18.299Z,87.56
2023-07-27T01:12:14.398Z,87.02
2023-07-27T01:14:58.333Z,87.35
2023-07-27T01:17:34.092Z,87.86
2023-07-27T01:20:00.837Z,87.55
2023-07-27T01:22:33.532Z,87.53
2023-07-27T01:25:03.259Z,87.39
2023-07-27T01:27:41.891Z,87.82
2023-07-27T01:30:28.529Z,87.77
2023-07-27T01:33:06.416Z,87.97
2023-07-27T01:35:39.249Z,87.46
2023-07-27T01:38:06.920Z,87.76
2023-07-27T01:40:35.596Z,87.56
2023-07-27T01:43:03.514Z,87.69
2023-07-27T01:45:30.320Z,87.24
2023-07-27T01:47:58.224Z,87.39
2023-07-27T01:50:25.428Z,87.22
2023-07-27T01:52:53.908Z,87.39
2023-07-27T01:55:23.524Z,87.36
2023-07-27T01:57:51.505Z,87.45
2023-07-27T02:00:18.360Z,87.47
2023-07-27T02:02:45.770Z,87.71
2023-07-27T02:05:13.815Z,88.00
2023-07-27T02:07:40.592Z,87.58
2023-07-27T02:10:12.096Z,87.01
2023-07-27T02:12:45.527Z,87.46
2023-07-27T02:15:18.386Z,87.14
2023-07-27T02:17:53.153Z,87.12
2023-07-27T02:20:21.316Z,86.98
2023-07-27T02:22:48.774Z,87.15
2023-07-27T02:25:15.982Z,87.10
2023-07-27T02:27:42.764Z,86.71
2023-07-27T02:30:09.693Z,87.40
2023-07-27T02:32:36.561Z,87.05
2023-07-27T02:35:03.751Z,87.11
2023-07-27T02:37:30.544Z,87.02
2023-07-27T02:39:57.349Z,86.95
2023-07-27T02:42:24.103Z,86.90
2023-07-27T02:44:50.902Z,86.98
2023-07-27T02:47:18.600Z,87.06
2023-07-27T02:49:45.527Z,87.21
2023-07-27T02:52:12.309Z,87.27
2023-07-27T02:54:39.219Z,87.00
2023-07-27T02:57:06.169Z,87.00
2023-07-27T02:59:32.989Z,86.74
2023-07-27T03:01:59.811Z,86.69
2023-07-27T03:04:26.712Z,86.96
2023-07-27T03:06:53.475Z,86.41
2023-07-27T03:09:20.241Z,87.08
2023-07-27T03:11:47.024Z,86.74
2023-07-27T03:14:13.814Z,87.01
2023-07-27T03:16:40.609Z,86.93
2023-07-27T03:19:07.404Z,86.70
2023-07-27T03:21:34.219Z,86.87
2023-07-27T03:24:01.017Z,86.96
2023-07-27T03:26:27.960Z,86.96
2023-07-27T03:28:54.903Z,87.03
2023-07-27T03:31:27.287Z,87.01
2023-07-27T03:33:54.240Z,87.05
2023-07-27T03:36:22.134Z,86.93
2023-07-27T03:38:49.088Z,87.25
2023-07-27T03:41:16.006Z,87.48
2023-07-27T03:43:42.795Z,87.20
2023-07-27T03:46:09.631Z,87.40
2023-07-27T03:48:36.796Z,87.21
2023-07-27T03:51:04.455Z,87.04
2023-07-27T03:53:31.521Z,87.12
2023-07-27T03:55:58.385Z,87.40
2023-07-27T03:58:25.194Z,87.28
2023-07-27T04:00:52.131Z,87.23
2023-07-27T04:03:18.948Z,87.10
2023-07-27T04:05:45.765Z,87.10
2023-07-27T04:08:12.580Z,87.01
2023-07-27T04:10:40.594Z,86.94
2023-07-27T04:13:07.420Z,87.71
2023-07-27T04:15:35.289Z,87.19
2023-07-27T04:18:02.149Z,87.63
2023-07-27T04:20:29.026Z,87.44
2023-07-27T04:22:55.830Z,87.99
2023-07-27T04:25:22.691Z,87.59
2023-07-27T04:27:53.104Z,87.91
2023-07-27T04:30:20.344Z,87.22
2023-07-27T04:32:47.197Z,88.13
2023-07-27T04:35:14.068Z,87.47
2023-07-27T04:37:40.851Z,87.89
2023-07-27T04:40:08.102Z,88.00
2023-07-27T04:42:34.886Z,87.52
2023-07-27T04:45:01.629Z,87.91
2023-07-27T04:47:29.405Z,87.96
2023-07-27T04:49:56.911Z,87.86
2023-07-27T04:52:23.699Z,88.42
2023-07-27T04:54:50.457Z,87.74
2023-07-27T04:57:17.248Z,88.89
2023-07-27T04:59:44.068Z,88.81
2023-07-27T05:02:10.899Z,89.07
2023-07-27T05:04:37.703Z,88.90
2023-07-27T05:07:04.711Z,88.74
2023-07-27T05:09:31.473Z,88.80
2023-07-27T05:11:58.241Z,88.85
2023-07-27T05:14:25.033Z,89.09
2023-07-27T05:16:52.873Z,89.40
2023-07-27T05:19:19.756Z,88.65
2023-07-27T05:21:46.528Z,89.45
2023-07-27T05:24:13.341Z,89.25
2023-07-27T05:26:40.306Z,89.24
2023-07-27T05:29:07.040Z,89.51
2023-07-27T05:31:33.916Z,89.06
2023-07-27T05:34:00.711Z,89.58
2023-07-27T05:36:27.494Z,89.38
2023-07-27T05:38:55.569Z,89.24
2023-07-27T05:41:22.329Z,89.05
2023-07-27T05:43:49.055Z,89.64
2023-07-27T05:46:16.403Z,89.06
2023-07-27T05:48:43.223Z,90.22
2023-07-27T05:51:10.668Z,89.73
2023-07-27T05:53:37.461Z,89.54
2023-07-27T05:56:07.390Z,89.21
2023-07-27T05:58:34.274Z,89.98
2023-07-27T06:01:04.868Z,88.97
2023-07-27T06:03:33.066Z,89.98
2023-07-27T06:06:00.486Z,90.37
2023-07-27T06:08:27.496Z,89.86
2023-07-27T06:11:05.645Z,89.52
2023-07-27T06:13:33.806Z,89.11
2023-07-27T06:16:01.340Z,89.02
2023-07-27T06:18:28.032Z,89.42
2023-07-27T06:20:55.192Z,89.35
2023-07-27T06:23:21.748Z,89.69
2023-07-27T06:25:48.250Z,89.11
2023-07-27T06:28:14.914Z,89.59
2023-07-27T06:30:41.781Z,89.01
2023-07-27T06:33:08.403Z,89.44
2023-07-27T06:35:35.488Z,88.88
2023-07-27T06:38:02.275Z,89.33
2023-07-27T06:40:29.115Z,89.12
2023-07-27T06:42:55.680Z,88.91
2023-07-27T06:45:22.236Z,88.91
2023-07-27T06:47:49.510Z,89.31
2023-07-27T06:50:16.194Z,89.51
2023-07-27T06:52:42.824Z,88.91
2023-07-27T06:55:09.607Z,89.18
2023-07-27T06:57:36.137Z,89.04
2023-07-27T07:00:04.148Z,89.01
2023-07-27T07:02:30.809Z,89.69
2023-07-27T07:04:57.418Z,89.44
2023-07-27T07:07:24.551Z,89.51
2023-07-27T07:09:51.081Z,89.46
2023-07-27T07:12:17.678Z,88.99
2023-07-27T07:14:44.199Z,89.51
2023-07-27T07:17:10.706Z,89.48
2023-07-27T07:19:37.242Z,89.34
2023-07-27T07:22:04.066Z,89.01
2023-07-27T07:24:30.593Z,89.16
2023-07-27T07:26:57.149Z,89.08
2023-07-27T07:29:23.663Z,89.75
2023-07-27T07:31:50.204Z,89.64
2023-07-27T07:34:16.750Z,89.52
2023-07-27T07:36:44.042Z,89.64
2023-07-27T07:39:10.557Z,89.47
2023-07-27T07:41:37.059Z,89.54
2023-07-27T07:44:03.730Z,89.17
2023-07-27T07:46:30.285Z,89.57
2023-07-27T07:48:58.443Z,89.29
2023-07-27T07:51:24.991Z,89.46
2023-07-27T07:53:51.486Z,89.04
2023-07-27T07:56:19.029Z,89.25
2023-07-27T07:58:46.099Z,89.34
2023-07-27T08:01:12.630Z,89.27
2023-07-27T08:03:39.446Z,89.20
2023-07-27T08:06:08.206Z,89.35
2023-07-27T08:08:35.547Z,89.22
2023-07-27T08:11:03.918Z,89.05
2023-07-27T08:13:33.758Z,89.15
2023-07-27T08:16:00.500Z,89.47
2023-07-27T08:18:29.877Z,89.52
2023-07-27T08:21:01.083Z,89.54
2023-07-27T08:23:28.954Z,89.87
2023-07-27T08:25:56.871Z,89.73
2023-07-27T08:28:24.009Z,89.63
2023-07-27T08:30:51.403Z,89.67
2023-07-27T08:33:18.262Z,89.89
2023-07-27T08:35:45.109Z,89.95
2023-07-27T08:38:12.003Z,90.05
2023-07-27T08:40:38.901Z,90.22
2023-07-27T08:43:08.527Z,90.01
2023-07-27T08:45:36.726Z,90.05
2023-07-27T08:48:04.904Z,90.33
2023-07-27T08:50:32.447Z,90.36
2023-07-27T08:52:59.211Z,90.49
2023-07-27T08:55:26.013Z,90.93
2023-07-27T08:57:52.762Z,90.46
2023-07-27T09:00:19.876Z,90.99
2023-07-27T09:02:47.201Z,91.19
2023-07-27T09:05:17.207Z,91.14
2023-07-27T09:07:50.561Z,91.07
2023-07-27T09:10:18.342Z,91.37
2023-07-27T09:12:45.045Z,91.66
2023-07-27T09:15:16.383Z,91.48
2023-07-27T09:17:43.358Z,91.46
2023-07-27T09:20:13.217Z,91.46
2023-07-27T09:22:48.768Z,91.44
2023-07-27T09:25:20.409Z,91.71
2023-07-27T09:27:47.191Z,91.56
2023-07-27T09:30:17.418Z,91.71
2023-07-27T09:32:44.404Z,91.18
2023-07-27T09:35:16.003Z,91.73
2023-07-27T09:37:53.440Z,91.61
2023-07-27T09:40:25.204Z,91.44
2023-07-27T09:42:52.604Z,91.70
2023-07-27T09:45:20.666Z,91.86
2023-07-27T09:47:49.691Z,91.46
2023-07-27T09:50:17.777Z,91.53
2023-07-27T09:52:45.702Z,91.45
2023-07-27T09:55:14.806Z,91.45
2023-07-27T09:57:42.488Z,91.39
2023-07-27T10:00:11.050Z,91.22
2023-07-27T10:02:37.913Z,91.34
2023-07-27T10:05:05.373Z,91.20
2023-07-27T10:07:44.179Z,90.91
2023-07-27T10:10:35.138Z,91.17
2023-07-27T10:13:15.369Z,91.28
2023-07-27T10:15:44.290Z,91.14
2023-07-27T10:18:15.717Z,91.33
2023-07-27T10:20:42.852Z,91.05
2023-07-27T10:23:21.218Z,91.27
2023-07-27T10:25:54.310Z,91.32
2023-07-27T10:28:31.252Z,91.90
2023-07-27T10:31:24.621Z,91.45
2023-07-27T10:34:22.820Z,91.05
2023-07-27T10:37:02.050Z,91.43
2023-07-27T10:39:34.650Z,90.77
2023-07-27T10:42:13.379Z,90.61
2023-07-27T10:44:41.012Z,90.80
2023-07-27T10:47:15.339Z,90.68
2023-07-27T10:49:49.713Z,90.67
2023-07-27T10:52:21.539Z,90.36
2023-07-27T10:54:49.697Z,90.17
2023-07-27T10:57:19.113Z,89.83
2023-07-27T10:59:48.374Z,89.13
2023-07-27T11:02:30.556Z,89.52
2023-07-27T11:04:58.624Z,89.20
2023-07-27T11:07:32.626Z,88.78
2023-07-27T11:10:00.467Z,88.59
2023-07-27T11:12:27.239Z,88.70
2023-07-27T11:14:53.862Z,88.26
2023-07-27T11:17:21.084Z,87.22
2023-07-27T11:19:48.233Z,88.17
2023-07-27T11:22:16.956Z,87.57
2023-07-27T11:24:43.772Z,86.75
2023-07-27T11:27:12.002Z,86.84
2023-07-27T11:29:40.879Z,86.88
2023-07-27T11:32:07.978Z,87.39
2023-07-27T11:34:36.290Z,87.19
2023-07-27T11:37:02.956Z,86.62
2023-07-27T11:39:30.578Z,86.96
2023-07-27T11:42:04.211Z,86.45
2023-07-27T11:44:30.816Z,86.68
2023-07-27T11:46:57.463Z,86.58
2023-07-27T11:49:24.255Z,86.49
2023-07-27T11:51:51.165Z,86.58
2023-07-27T11:54:28.363Z,86.46
2023-07-27T11:56:58.218Z,85.12
2023-07-27T11:59:25.116Z,85.32
2023-07-27T12:01:53.326Z,85.20
2023-07-27T12:04:21.476Z,85.66
2023-07-27T12:06:49.044Z,85.26
2023-07-27T12:09:15.782Z,85.11
2023-07-27T12:11:42.392Z,85.65
2023-07-27T12:14:10.161Z,85.78
2023-07-27T12:19:08.807Z,86.81
2023-07-27T12:21:36.841Z,87.23
2023-07-27T12:34:08.078Z,88.71
2023-07-27T12:36:34.695Z,89.10
2023-07-27T12:39:01.295Z,89.59
2023-07-27T12:41:27.838Z,89.57
2023-07-27T12:43:56.143Z,90.39
2023-07-27T12:46:23.060Z,90.30
2023-07-27T12:48:49.762Z,90.95
2023-07-27T12:51:17.074Z,91.03
2023-07-27T12:53:43.822Z,90.71
2023-07-27T12:56:10.699Z,90.77
2023-07-27T12:59:06.830Z,90.87
2023-07-27T13:01:33.723Z,91.16
2023-07-27T13:04:00.996Z,91.58
2023-07-27T13:06:27.841Z,91.88
2023-07-27T13:08:54.752Z,92.41
2023-07-27T13:11:22.375Z,91.78
2023-07-27T13:13:49.082Z,91.98
2023-07-27T13:16:15.840Z,92.08
2023-07-27T13:18:42.575Z,92.53
2023-07-27T13:21:09.378Z,92.21
2023-07-27T13:23:36.215Z,92.13
2023-07-27T13:26:07.182Z,92.59
2023-07-27T13:28:34.147Z,92.55
2023-07-27T13:31:01.116Z,93.08
2023-07-27T13:33:28.175Z,93.32
2023-07-27T13:35:54.957Z,93.01
2023-07-27T13:38:21.784Z,93.55
2023-07-27T13:40:48.615Z,93.19
2023-07-27T13:43:15.337Z,93.38
2023-07-27T13:45:42.115Z,93.77
2023-07-27T13:48:10.508Z,93.76
2023-07-27T13:50:38.186Z,93.55
2023-07-27T13:53:09.797Z,93.74
2023-07-27T13:55:36.965Z,93.70
2023-07-27T13:58:03.941Z,94.08
2023-07-27T14:00:30.699Z,93.71
2023-07-27T14:02:57.686Z,93.62
2023-07-27T14:05:24.577Z,93.79
2023-07-27T14:07:51.447Z,93.90
2023-07-27T14:10:18.436Z,94.02
2023-07-27T14:12:45.244Z,94.09
2023-07-27T14:15:12.061Z,93.76
2023-07-27T14:17:38.921Z,95.85
2023-07-27T14:20:07.371Z,94.51
2023-07-27T14:22:36.542Z,94.46
2023-07-27T14:25:04.436Z,93.63
2023-07-27T14:30:02.850Z,94.54
2023-07-27T14:32:31.029Z,94.90
2023-07-27T14:34:58.970Z,94.21
2023-07-27T14:37:25.805Z,93.59
2023-07-27T14:39:52.816Z,94.48
2023-07-27T14:42:19.925Z,94.34
2023-07-27T14:44:48.485Z,94.10
2023-07-27T14:47:15.806Z,93.81
2023-07-27T14:49:42.671Z,93.37
2023-07-27T14:52:09.954Z,93.32
2023-07-27T14:54:36.733Z,94.58
2023-07-27T14:57:06.193Z,93.70
2023-07-27T14:59:43.645Z,93.75
2023-07-27T15:02:28.028Z,93.93
2023-07-27T15:04:55.563Z,93.27
2023-07-27T15:07:22.562Z,93.54
2023-07-27T15:09:50.690Z,93.62
2023-07-27T15:12:17.473Z,93.44
2023-07-27T15:14:44.206Z,93.66
2023-07-27T15:17:10.990Z,94.12
2023-07-27T15:19:37.727Z,94.85
2023-07-27T15:22:05.534Z,94.26
2023-07-27T15:24:34.533Z,93.65
2023-07-27T15:27:03.891Z,93.66
2023-07-27T15:29:30.929Z,93.92
2023-07-27T15:31:57.706Z,93.79
2023-07-27T15:34:24.415Z,93.75
2023-07-27T15:36:51.133Z,94.26
2023-07-27T15:39:17.841Z,94.01
2023-07-27T15:41:44.569Z,93.39
2023-07-27T15:44:11.271Z,92.47
2023-07-27T15:46:38.236Z,92.85
2023-07-27T15:49:05.348Z,93.36
2023-07-27T15:51:32.113Z,93.51
2023-07-27T15:53:58.861Z,94.22
2023-07-27T15:56:25.568Z,93.95
2023-07-27T15:58:52.302Z,92.89
2023-07-27T16:01:19.077Z,93.77
2023-07-27T16:03:45.984Z,93.52
2023-07-27T16:06:12.816Z,93.58
2023-07-27T16:08:39.750Z,93.15
2023-07-27T16:11:11.514Z,93.58
2023-07-27T16:13:38.751Z,93.83
2023-07-27T16:16:05.648Z,93.89
2023-07-27T16:18:35.685Z,93.44
2023-07-27T16:21:03.543Z,93.41
2023-07-27T16:23:32.150Z,93.02
2023-07-27T16:26:06.731Z,93.41
2023-07-27T16:28:34.047Z,92.94
2023-07-27T16:31:00.856Z,93.02
2023-07-27T16:33:27.646Z,92.77
2023-07-27T16:35:54.437Z,92.46
2023-07-27T16:38:21.190Z,92.68
2023-07-27T16:40:53.944Z,92.54
2023-07-27T16:43:21.130Z,92.17
2023-07-27T16:45:47.687Z,92.35
2023-07-27T16:48:14.478Z,92.75
2023-07-27T16:50:41.313Z,92.39
2023-07-27T16:53:07.994Z,92.25
2023-07-27T16:55:37.160Z,92.60
2023-07-27T16:58:03.819Z,92.54
2023-07-27T17:00:34.399Z,93.04
2023-07-27T17:03:01.137Z,92.46
2023-07-27T17:05:27.833Z,92.91
2023-07-27T17:07:54.568Z,92.96
2023-07-27T17:10:21.101Z,93.30
2023-07-27T17:12:47.642Z,93.38
2023-07-27T17:15:14.247Z,93.41
2023-07-27T17:17:40.793Z,93.07
2023-07-27T17:20:07.808Z,93.79
2023-07-27T17:22:34.312Z,93.48
2023-07-27T17:25:00.825Z,93.41
2023-07-27T17:27:27.384Z,93.39
2023-07-27T17:29:53.959Z,93.58
2023-07-27T17:32:21.425Z,93.41
2023-07-27T17:34:48.013Z,93.01
2023-07-27T17:37:14.556Z,93.07
2023-07-27T17:39:42.392Z,93.42
2023-07-27T17:42:08.985Z,93.39
2023-07-27T17:44:35.516Z,93.46
2023-07-27T17:47:02.082Z,93.61
2023-07-27T17:49:28.817Z,93.51
2023-07-27T17:51:55.358Z,93.57
2023-07-27T17:54:21.876Z,93.67
2023-07-27T17:56:48.538Z,93.91
2023-07-27T17:59:15.063Z,93.91
2023-07-27T18:01:41.661Z,93.26
2023-07-27T18:04:08.691Z,93.90
2023-07-27T18:06:35.266Z,93.71
2023-07-27T18:09:01.879Z,93.18
2023-07-27T18:11:28.405Z,93.37
2023-07-27T18:13:54.941Z,93.56
2023-07-27T18:18:48.076Z,93.96
2023-07-27T18:21:17.331Z,93.79
2023-07-27T18:23:44.949Z,93.91
2023-07-27T18:26:19.406Z,93.82
2023-07-27T18:28:47.049Z,94.06
2023-07-27T18:31:13.666Z,94.54
2023-07-27T18:33:40.324Z,93.96
2023-07-27T18:36:16.085Z,93.99
2023-07-27T18:38:45.497Z,94.36
2023-07-27T18:41:17.594Z,94.13
2023-07-27T18:43:44.791Z,94.84
2023-07-27T18:46:17.298Z,94.87
2023-07-27T18:48:44.531Z,94.27
2023-07-27T18:51:11.550Z,94.95
2023-07-27T18:53:38.283Z,94.90
2023-07-27T18:56:05.232Z,94.75
2023-07-27T18:58:32.015Z,94.70
2023-07-27T19:00:58.852Z,95.10
2023-07-27T19:03:27.661Z,95.01
2023-07-27T19:05:54.513Z,95.08
2023-07-27T19:08:21.588Z,94.83
2023-07-27T19:10:48.733Z,94.88
2023-07-27T19:13:15.495Z,94.62
2023-07-27T19:15:49.583Z,95.01
2023-07-27T19:18:17.410Z,95.04
2023-07-27T19:20:44.344Z,94.84
2023-07-27T19:23:11.285Z,95.07
2023-07-27T19:25:42.865Z,95.39
2023-07-27T19:28:11.645Z,95.31
2023-07-27T19:30:40.206Z,94.92
2023-07-27T19:33:10.949Z,94.77
2023-07-27T19:35:38.873Z,95.26
2023-07-27T19:38:07.098Z,94.78
2023-07-27T19:40:34.519Z,94.95
2023-07-27T19:43:01.307Z,94.39
2023-07-27T19:45:28.234Z,94.70
2023-07-27T19:47:55.059Z,94.47
2023-07-27T19:50:21.847Z,94.57
2023-07-27T19:52:48.586Z,94.95
2023-07-27T19:55:15.436Z,94.77
2023-07-27T19:57:42.168Z,95.11
2023-07-27T20:00:10.571Z,94.53
2023-07-27T20:02:37.398Z,94.72
2023-07-27T20:05:04.653Z,94.73
2023-07-27T20:07:31.372Z,95.12
2023-07-27T20:09:58.188Z,95.21
2023-07-27T20:12:25.017Z,94.91
2023-07-27T20:14:51.737Z,95.53
2023-07-27T20:17:18.887Z,95.04
2023-07-27T20:19:45.740Z,95.63
2023-07-27T20:22:12.511Z,95.89
2023-07-27T20:24:40.872Z,96.00
2023-07-27T20:27:09.831Z,95.98
2023-07-27T20:29:36.547Z,95.50
2023-07-27T20:32:03.564Z,96.09
2023-07-27T20:34:30.395Z,95.52
2023-07-27T20:36:57.138Z,95.88
2023-07-27T20:39:24.184Z,95.87
2023-07-27T20:41:54.652Z,95.57
2023-07-27T20:44:22.018Z,95.84
2023-07-27T20:46:48.861Z,95.60
2023-07-27T20:49:15.619Z,95.70
2023-07-27T20:51:42.569Z,95.82
2023-07-27T20:54:09.347Z,95.71
2023-07-27T20:56:36.425Z,95.56
2023-07-27T20:59:03.448Z,95.82
2023-07-27T21:01:30.219Z,95.20
2023-07-27T21:03:58.300Z,95.46
2023-07-27T21:06:26.014Z,95.46
2023-07-27T21:08:53.413Z,95.26
2023-07-27T21:11:20.340Z,95.51
2023-07-27T21:13:47.182Z,95.16
2023-07-27T21:16:14.029Z,95.33
2023-07-27T21:18:40.775Z,95.28
2023-07-27T21:21:18.640Z,95.41
2023-07-27T21:23:49.259Z,94.80
2023-07-27T21:26:16.178Z,95.08
2023-07-27T21:28:44.722Z,95.28
2023-07-27T21:31:11.718Z,95.17
2023-07-27T21:33:38.952Z,95.81
2023-07-27T21:36:07.189Z,95.61
2023-07-27T21:38:34.187Z,95.24
2023-07-27T21:41:01.015Z,95.02
2023-07-27T21:43:28.914Z,95.12
2023-07-27T21:45:56.231Z,95.24
2023-07-27T21:48:23.190Z,95.43
2023-07-27T21:50:52.445Z,95.42
2023-07-27T21:53:19.566Z,95.41
2023-07-27T21:55:46.959Z,95.45
2023-07-27T21:58:13.955Z,95.36
2023-07-27T22:00:40.756Z,95.06
2023-07-27T22:03:08.150Z,95.20
2023-07-27T22:05:35.021Z,95.15
2023-07-27T22:08:02.277Z,95.30
2023-07-27T22:10:29.066Z,95.05
2023-07-27T22:12:55.784Z,94.94
2023-07-27T22:15:22.529Z,95.22
2023-07-27T22:17:49.717Z,95.25
2023-07-27T22:20:17.048Z,95.83
2023-07-27T22:22:43.858Z,95.66
2023-07-27T22:25:11.319Z,95.74
2023-07-27T22:27:38.553Z,95.96
2023-07-27T22:30:07.117Z,95.68
2023-07-27T22:32:34.085Z,95.64
2023-07-27T22:35:00.960Z,95.81
2023-07-27T22:37:27.615Z,95.51
2023-07-27T22:39:54.249Z,96.16
2023-07-27T22:42:20.950Z,95.90
2023-07-27T22:44:47.668Z,95.58
2023-07-27T22:47:14.278Z,95.50
2023-07-27T22:49:41.416Z,95.80
2023-07-27T22:52:08.132Z,95.65
2023-07-27T22:54:34.700Z,95.91
2023-07-27T22:57:01.240Z,95.58
2023-07-27T22:59:28.014Z,96.24
2023-07-27T23:01:55.998Z,95.58
2023-07-27T23:04:22.596Z,95.96
2023-07-27T23:06:49.157Z,96.04
2023-07-27T23:09:16.071Z,96.21
2023-07-27T23:11:42.618Z,95.69
2023-07-27T23:14:09.731Z,96.14
2023-07-27T23:16:36.702Z,95.89
2023-07-27T23:19:03.568Z,96.02
2023-07-27T23:21:30.145Z,95.79
2023-07-27T23:23:56.694Z,95.94
2023-07-27T23:26:23.224Z,95.96
2023-07-27T23:28:49.750Z,96.00
2023-07-27T23:31:16.284Z,96.07
2023-07-27T23:33:43.363Z,95.71
2023-07-27T23:36:12.319Z,95.74
2023-07-27T23:38:39.812Z,96.21
2023-07-27T23:41:06.612Z,96.30
2023-07-27T23:43:33.150Z,96.23
2023-07-27T23:45:59.705Z,96.04
2023-07-27T23:48:26.335Z,96.28
2023-07-27T23:50:52.933Z,96.46
2023-07-27T23:53:19.484Z,96.06
2023-07-27T23:55:46.054Z,96.13
2023-07-27T23:58:12.617Z,96.27
